Meraux, Louisiana
Current Conditions -  °F | °C
As of 11:55 AM on Thursday 23 Oct 2014 (Local Time) from KNBG Reporting Station
Scattered Clouds Scattered Clouds  
Wind Chill: 72°   Ceiling: Unl
Heat Index: 72°   Visibility: 8mi
Dew Point: 51°   Wind: 9mph
Humidity: 48%   Direction: 60°ENE
Pressure: 30.1"   Gusts: NA
Location:  29.92°N, 89.91°W
Report Text: KNBG 231655Z 06008KT 8SM FEW005 SCT250 22/11 A3010 RMK AO2 SLP190 FU FEW005 T02220106 $
Loading
Personal Weather Stations






























Interactive Weather Map
Tropical Storm Tracking
New forecast layout! Learn more

10-Day Weather Forecast

Advertisements
Track Severe Weather on mobile